Drucken
vwd group

Indexkurslisten

ZeitKursKurs (Vortag)% (Vortag)Kurs (1 Jahr)% (1 Jahr)
Gewinner
CLOROX 25.05.18 104,89 101,84 +2,99 -14,378 -13,71%
COLGATE PALMO. 25.05.18 54,60 53,20 +2,63 -10,584 -19,38%
AMERISOURCEBERGEN ... 25.05.18 73,27 71,68 +2,22 -8,414 -11,48%
UNDER ARMOUR A... 25.05.18 17,86 17,49 +2,12 0,047 +0,26%
CENTENE CORP. ... 25.05.18 101,26 99,25 +2,03 49,224 +48,61%
CHURCH + DWIGHT CO... 25.05.18 40,48 39,76 +1,81 -4,637 -11,46%
AMD 25.05.18 11,54 11,35 +1,67 1,637 +14,19%
CONAGRA FOODS 25.05.18 31,92 31,45 +1,49 -2,956 -9,26%
BIOGEN 25.05.18 245,86 242,34 +1,45 16,500 +6,71%
CERNER CORP. ... 25.05.18 51,32 50,59 +1,44 -6,551 -12,76%
AMER. ELEC PWR 25.05.18 57,62 56,88 +1,30 -5,168 -8,97%
AVALONBAY COMM. ... 25.05.18 138,43 136,67 +1,29 -28,961 -20,92%
CBS 25.05.18 43,66 43,11 +1,28 -9,607 -22,00%
AETNA INC. ... 25.05.18 152,54 150,73 +1,20 28,856 +18,92%
CF INDS HLDGS ... 25.05.18 35,48 35,09 +1,11 13,945 +39,30%
COMCAST 25.05.18 27,23 26,94 +1,08 -6,506 -23,89%
DIGITAL REALTY TR... 25.05.18 91,21 90,28 +1,03 -12,965 -14,21%
VIACOM 25.05.18 23,44 23,21 +0,99 -5,774 -24,63%
CARNIVAL 25.05.18 55,16 54,62 +0,99 -0,223 -0,41%
CH ROBINSON 25.05.18 75,57 74,88 +0,92 16,359 +21,65%
ACUITY BRANDS INC... 25.05.18 101,81 100,92 +0,88 -34,349 -33,74%
AMAZON 25.05.18 1.378,56 1.366,62 +0,87 774,485 +56,18%
ROCKWELL COLL. 25.05.18 118,27 117,25 +0,87 31,138 +26,33%
AUTOM. DATA 25.05.18 111,95 111,01 +0,85 26,458 +23,63%
CITRIX 25.05.18 91,32 90,60 +0,79 21,598 +23,65%
AMEREN CORP. ... 25.05.18 50,21 49,82 +0,78 -1,133 -2,26%
AES 25.05.18 10,61 10,53 +0,76 0,244 +2,30%
APPLE 25.05.18 161,60 160,40 +0,75 25,479 +15,77%
FRANKLIN RES INC. ... 25.05.18 29,10 28,89 +0,73 -6,313 -21,69%
BAXTER 25.05.18 61,90 61,47 +0,70 11,785 +19,04%
BALL CORP. 25.05.18 32,68 32,46 +0,68 -3,365 -10,30%
BOEING 25.05.18 308,03 305,99 +0,67 257,600 +83,63%
EXTRA SPACE ST.SBI... 25.05.18 80,65 80,13 +0,65 11,575 +14,35%
COCA COLA 25.05.18 36,30 36,07 +0,64 -3,622 -9,98%
CINCINNATI FINL ... 25.05.18 60,26 59,91 +0,58 -1,708 -2,83%
BRISTOL MYERS 25.05.18 45,07 44,81 +0,58 -3,254 -7,22%
CABOT OIL&GAS 25.05.18 19,15 19,04 +0,58 -1,483 -7,74%
AMGEN 25.05.18 152,65 151,83 +0,54 14,188 +9,29%
BOSTON PROPERTIES... 25.05.18 102,39 101,85 +0,53 -6,818 -6,66%
APPLIED MATLS 25.05.18 43,35 43,15 +0,46 3,057 +7,05%
CADENCE DESIGN SYS... 25.05.18 36,00 35,84 +0,45 7,047 +19,57%
ANALOG DEVICES 25.05.18 81,30 80,94 +0,44 7,678 +9,44%
SMITH -A.O.- CORP. ... 25.05.18 55,07 54,83 +0,44 6,360 +11,55%
CA 25.05.18 30,40 30,27 +0,43 2,098 +6,90%
AUTOZONE INC. ... 25.05.18 543,06 540,79 +0,42 25,929 +4,77%
CME GROUP 25.05.18 136,43 135,86 +0,42 42,380 +31,06%
CIGNA CORP. ... 25.05.18 150,22 149,60 +0,41 6,927 +4,61%
ADVANCE AUTO PA... 25.05.18 106,57 106,16 +0,39 -13,489 -12,66%
ALLSTATE 25.05.18 81,70 81,39 +0,38 5,116 +6,26%
MASTERCARD 25.05.18 163,68 163,12 +0,34 85,986 +52,53%
BOSTON SCIENT. 25.05.18 25,94 25,87 +0,27 2,259 +8,71%
AFLAC 25.05.18 38,74 38,64 +0,26 6,315 +16,30%
BLACKROCK CL. A DL... 25.05.18 461,10 459,96 +0,25 135,041 +29,29%
ADOBE 25.05.18 209,08 208,58 +0,24 137,209 +65,63%
ALLIANCE DATA SYS... 25.05.18 182,47 182,09 +0,21 -22,424 -12,29%
ABBOTT LABS 25.05.18 53,32 53,21 +0,21 19,448 +36,47%
AVERY DENNISON ... 25.05.18 92,81 92,63 +0,19 22,617 +24,37%
TRANSDIGM GROUP ... 25.05.18 286,07 285,55 +0,18 60,001 +20,97%
MOLSON COORS B DL... 25.05.18 52,46 52,39 +0,13 -20,088 -38,29%
AMERIPRISE 25.05.18 121,65 121,49 +0,13 14,438 +11,87%
BB&T 25.05.18 46,82 46,77 +0,11 10,695 +22,84%
ALBEMARLE CORP. ... 25.05.18 81,10 81,02 +0,10 -14,882 -18,35%
CENTERPOINT ENERGY... 25.05.18 22,05 22,03 +0,09 -2,610 -11,83%
COSTCO 25.05.18 169,49 169,38 +0,06 16,014 +9,45%
BORGWARNER INC. ... 25.05.18 43,84 43,82 +0,05 9,674 +22,07%
SVB FINL GROUP ... 25.05.18 273,95 273,87 +0,03 183,664 +67,04%
CISCO 25.05.18 37,08 37,07 +0,03 11,462 +30,91%
CARDINAL HEALTH... 25.05.18 44,76 44,75 +0,02 -14,081 -31,46%

Verlierer
BEST BUY 25.05.18 58,80 63,41 -7,27 17,375 +29,55%
HESS CORP. ... 25.05.18 50,56 53,19 -4,94 10,862 +21,48%
APACHE 25.05.18 33,47 35,14 -4,75 -6,087 -18,19%
CONOCOPHILLIPS 25.05.18 55,84 58,26 -4,15 22,414 +40,14%
SCHLUMBERGER 25.05.18 58,34 60,63 -3,78 -2,842 -4,87%
CHEVRON 25.05.18 103,74 107,45 -3,45 13,552 +13,06%
BROWN-FORMAN CORP B... 25.05.18 48,77 49,78 -2,03 14,997 +30,75%
PETE ANADARKO 25.05.18 58,05 58,71 -1,12 14,526 +25,02%
AGILENT 25.05.18 54,02 54,61 -1,08 2,571 +4,76%
CUMMINS INC. DL... 25.05.18 125,12 126,23 -0,88 -11,503 -9,19%
COMERICA 25.05.18 83,57 84,29 -0,85 27,961 +33,46%
AMETEK INC. ... 25.05.18 64,19 64,72 -0,82 11,361 +17,70%
CELGENE 25.05.18 67,21 67,75 -0,80 -23,512 -34,98%
ALASKA AIR GRP INC. ... 25.05.18 50,78 51,12 -0,67 -18,161 -35,76%
AMER. EXPRESS 25.05.18 86,35 86,92 -0,66 21,310 +24,68%
NRG ENERGY INC. ... 25.05.18 29,05 29,24 -0,65 28,798 +99,13%
CATERPILLAR 25.05.18 133,59 134,19 -0,45 58,201 +43,57%
AIR PROD. CHEM. ... 25.05.18 140,90 141,41 -0,36 16,092 +11,42%
COOPER COS INC. ... 25.05.18 193,25 193,93 -0,35 3,536 +1,83%
BECTON DICKINSN 25.05.18 191,21 191,84 -0,33 32,414 +16,95%
AT&T 25.05.18 27,81 27,89 -0,29 -5,230 -18,81%
REGIONS FINL 25.05.18 16,18 16,22 -0,25 4,315 +26,67%
CAPITAL ONE 25.05.18 80,99 81,17 -0,22 11,039 +13,63%
AMPHENOL CORP. A... 25.05.18 74,57 74,72 -0,20 9,989 +13,40%
ARCHER DANIELS 25.05.18 38,04 38,11 -0,18 -0,060 -0,16%
GALLAGHER , A.J. ... 25.05.18 57,67 57,77 -0,17 7,980 +13,84%
CHIPOTLE MEX.GR. DL... 25.05.18 367,92 368,52 -0,16 -45,153 -12,27%
CINTAS 25.05.18 154,31 154,47 -0,10 63,941 +41,44%
BK OF NY MELLON 25.05.18 48,72 48,77 -0,10 8,147 +16,72%
SALESFORCE 25.05.18 109,41 109,50 -0,08 41,738 +38,15%
BK OF AMERICA 25.05.18 25,72 25,74 -0,08 6,077 +23,63%
ALTRIA 25.05.18 47,57 47,59 -0,04 -12,433 -26,14%

Mehr Marktdaten und Kurse finden Sie auf www.finanztreff.de